sensor_id;sensor_type;location;lat;lon;timestamp;P1;durP1;ratioP1;P2;durP2;ratioP2
16531;SDS011;66872;63.142;14.482;2024-02-21T00:02:07;0.40;;;0.40;;
16531;SDS011;66872;63.142;14.482;2024-02-21T00:04:33;0.40;;;0.40;;
16531;SDS011;66872;63.142;14.482;2024-02-21T00:07:00;0.50;;;0.50;;
16531;SDS011;66872;63.142;14.482;2024-02-21T00:09:25;0.50;;;0.50;;
16531;SDS011;66872;63.142;14.482;2024-02-21T00:11:51;0.40;;;0.40;;
16531;SDS011;66872;63.142;14.482;2024-02-21T00:14:16;0.50;;;0.50;;
16531;SDS011;66872;63.142;14.482;2024-02-21T00:16:42;0.60;;;0.60;;
16531;SDS011;66872;63.142;14.482;2024-02-21T00:19:08;0.47;;;0.47;;
16531;SDS011;66872;63.142;14.482;2024-02-21T00:21:34;0.50;;;0.50;;
16531;SDS011;66872;63.142;14.482;2024-02-21T00:23:59;0.50;;;0.47;;
16531;SDS011;66872;63.142;14.482;2024-02-21T00:26:25;0.50;;;0.50;;
16531;SDS011;66872;63.142;14.482;2024-02-21T00:28:51;0.43;;;0.43;;
16531;SDS011;66872;63.142;14.482;2024-02-21T00:31:16;0.40;;;0.40;;
16531;SDS011;66872;63.142;14.482;2024-02-21T00:33:42;0.40;;;0.40;;
16531;SDS011;66872;63.142;14.482;2024-02-21T00:36:08;0.37;;;0.37;;
16531;SDS011;66872;63.142;14.482;2024-02-21T00:38:33;0.50;;;0.50;;
16531;SDS011;66872;63.142;14.482;2024-02-21T00:40:59;0.30;;;0.30;;
16531;SDS011;66872;63.142;14.482;2024-02-21T00:43:24;0.40;;;0.40;;
16531;SDS011;66872;63.142;14.482;2024-02-21T00:45:50;0.23;;;0.23;;
16531;SDS011;66872;63.142;14.482;2024-02-21T00:48:16;0.40;;;0.40;;
16531;SDS011;66872;63.142;14.482;2024-02-21T00:50:41;0.37;;;0.37;;
16531;SDS011;66872;63.142;14.482;2024-02-21T00:53:07;0.57;;;0.57;;
16531;SDS011;66872;63.142;14.482;2024-02-21T00:55:33;0.50;;;0.50;;
16531;SDS011;66872;63.142;14.482;2024-02-21T00:57:59;0.47;;;0.47;;
16531;SDS011;66872;63.142;14.482;2024-02-21T01:00:25;0.57;;;0.57;;
16531;SDS011;66872;63.142;14.482;2024-02-21T01:02:51;0.40;;;0.40;;
16531;SDS011;66872;63.142;14.482;2024-02-21T01:05:16;0.40;;;0.40;;
16531;SDS011;66872;63.142;14.482;2024-02-21T01:07:42;0.50;;;0.50;;
16531;SDS011;66872;63.142;14.482;2024-02-21T01:10:08;0.50;;;0.50;;
16531;SDS011;66872;63.142;14.482;2024-02-21T01:12:34;0.50;;;0.50;;
16531;SDS011;66872;63.142;14.482;2024-02-21T01:15:00;0.30;;;0.30;;
16531;SDS011;66872;63.142;14.482;2024-02-21T01:17:25;0.43;;;0.43;;
16531;SDS011;66872;63.142;14.482;2024-02-21T01:19:51;0.40;;;0.40;;
16531;SDS011;66872;63.142;14.482;2024-02-21T01:22:17;0.50;;;0.50;;
16531;SDS011;66872;63.142;14.482;2024-02-21T01:24:43;0.60;;;0.60;;
16531;SDS011;66872;63.142;14.482;2024-02-21T01:27:08;0.60;;;0.60;;
16531;SDS011;66872;63.142;14.482;2024-02-21T01:29:34;0.60;;;0.60;;
16531;SDS011;66872;63.142;14.482;2024-02-21T01:32:00;0.43;;;0.43;;
16531;SDS011;66872;63.142;14.482;2024-02-21T01:34:26;0.40;;;0.40;;
16531;SDS011;66872;63.142;14.482;2024-02-21T01:36:51;0.40;;;0.40;;
16531;SDS011;66872;63.142;14.482;2024-02-21T01:39:17;0.50;;;0.50;;
16531;SDS011;66872;63.142;14.482;2024-02-21T01:41:43;0.30;;;0.30;;
16531;SDS011;66872;63.142;14.482;2024-02-21T01:44:08;0.60;;;0.50;;
16531;SDS011;66872;63.142;14.482;2024-02-21T01:46:34;0.47;;;0.47;;
16531;SDS011;66872;63.142;14.482;2024-02-21T01:49:00;0.53;;;0.53;;
16531;SDS011;66872;63.142;14.482;2024-02-21T01:51:26;0.50;;;0.50;;
16531;SDS011;66872;63.142;14.482;2024-02-21T01:53:53;0.60;;;0.60;;
16531;SDS011;66872;63.142;14.482;2024-02-21T01:56:20;0.53;;;0.53;;
16531;SDS011;66872;63.142;14.482;2024-02-21T01:58:46;0.33;;;0.33;;
16531;SDS011;66872;63.142;14.482;2024-02-21T02:01:13;0.60;;;0.60;;
16531;SDS011;66872;63.142;14.482;2024-02-21T02:03:39;0.40;;;0.40;;
16531;SDS011;66872;63.142;14.482;2024-02-21T02:06:05;0.57;;;0.50;;
16531;SDS011;66872;63.142;14.482;2024-02-21T02:08:34;0.60;;;0.60;;
16531;SDS011;66872;63.142;14.482;2024-02-21T02:11:00;0.53;;;0.53;;
16531;SDS011;66872;63.142;14.482;2024-02-21T02:13:26;0.60;;;0.60;;
16531;SDS011;66872;63.142;14.482;2024-02-21T02:15:52;0.43;;;0.43;;
16531;SDS011;66872;63.142;14.482;2024-02-21T02:18:19;0.47;;;0.47;;
16531;SDS011;66872;63.142;14.482;2024-02-21T02:20:45;0.30;;;0.30;;
16531;SDS011;66872;63.142;14.482;2024-02-21T02:25:42;0.40;;;0.40;;
16531;SDS011;66872;63.142;14.482;2024-02-21T02:28:08;0.50;;;0.50;;
16531;SDS011;66872;63.142;14.482;2024-02-21T02:30:37;0.50;;;0.50;;
16531;SDS011;66872;63.142;14.482;2024-02-21T02:33:03;0.50;;;0.50;;
16531;SDS011;66872;63.142;14.482;2024-02-21T02:35:30;0.70;;;0.70;;
16531;SDS011;66872;63.142;14.482;2024-02-21T02:37:56;0.70;;;0.60;;
16531;SDS011;66872;63.142;14.482;2024-02-21T02:40:21;0.50;;;0.50;;
16531;SDS011;66872;63.142;14.482;2024-02-21T02:42:48;0.50;;;0.50;;
16531;SDS011;66872;63.142;14.482;2024-02-21T02:45:17;0.33;;;0.33;;
16531;SDS011;66872;63.142;14.482;2024-02-21T02:47:46;0.43;;;0.43;;
16531;SDS011;66872;63.142;14.482;2024-02-21T02:50:12;0.30;;;0.30;;
16531;SDS011;66872;63.142;14.482;2024-02-21T02:52:38;0.40;;;0.40;;
16531;SDS011;66872;63.142;14.482;2024-02-21T02:55:04;0.50;;;0.50;;
16531;SDS011;66872;63.142;14.482;2024-02-21T02:57:30;0.73;;;0.73;;
16531;SDS011;66872;63.142;14.482;2024-02-21T02:59:56;0.50;;;0.50;;
16531;SDS011;66872;63.142;14.482;2024-02-21T03:02:22;0.40;;;0.40;;
16531;SDS011;66872;63.142;14.482;2024-02-21T03:04:48;0.53;;;0.53;;
16531;SDS011;66872;63.142;14.482;2024-02-21T03:07:14;0.60;;;0.60;;
16531;SDS011;66872;63.142;14.482;2024-02-21T03:09:41;0.50;;;0.50;;
16531;SDS011;66872;63.142;14.482;2024-02-21T03:12:10;0.43;;;0.43;;
16531;SDS011;66872;63.142;14.482;2024-02-21T03:14:36;0.43;;;0.43;;
16531;SDS011;66872;63.142;14.482;2024-02-21T03:17:02;0.50;;;0.50;;
16531;SDS011;66872;63.142;14.482;2024-02-21T03:19:28;0.30;;;0.30;;
16531;SDS011;66872;63.142;14.482;2024-02-21T03:21:54;0.40;;;0.40;;
16531;SDS011;66872;63.142;14.482;2024-02-21T03:24:20;0.53;;;0.53;;
16531;SDS011;66872;63.142;14.482;2024-02-21T03:26:46;0.50;;;0.50;;
16531;SDS011;66872;63.142;14.482;2024-02-21T03:29:16;0.40;;;0.40;;
16531;SDS011;66872;63.142;14.482;2024-02-21T03:31:42;0.43;;;0.43;;
16531;SDS011;66872;63.142;14.482;2024-02-21T03:34:07;0.57;;;0.57;;
16531;SDS011;66872;63.142;14.482;2024-02-21T03:36:35;0.40;;;0.40;;
16531;SDS011;66872;63.142;14.482;2024-02-21T03:39:00;0.50;;;0.50;;
16531;SDS011;66872;63.142;14.482;2024-02-21T03:41:26;0.40;;;0.40;;
16531;SDS011;66872;63.142;14.482;2024-02-21T03:43:52;0.60;;;0.60;;
16531;SDS011;66872;63.142;14.482;2024-02-21T03:46:17;0.50;;;0.50;;
16531;SDS011;66872;63.142;14.482;2024-02-21T03:48:43;0.40;;;0.40;;
16531;SDS011;66872;63.142;14.482;2024-02-21T03:51:09;0.50;;;0.50;;
16531;SDS011;66872;63.142;14.482;2024-02-21T03:53:35;0.60;;;0.60;;
16531;SDS011;66872;63.142;14.482;2024-02-21T03:56:01;0.60;;;0.60;;
16531;SDS011;66872;63.142;14.482;2024-02-21T03:58:29;0.50;;;0.50;;
16531;SDS011;66872;63.142;14.482;2024-02-21T04:01:00;0.40;;;0.40;;
16531;SDS011;66872;63.142;14.482;2024-02-21T04:03:26;0.40;;;0.40;;
16531;SDS011;66872;63.142;14.482;2024-02-21T04:05:52;0.60;;;0.60;;
16531;SDS011;66872;63.142;14.482;2024-02-21T04:08:18;0.60;;;0.60;;
16531;SDS011;66872;63.142;14.482;2024-02-21T04:10:43;0.47;;;0.47;;
16531;SDS011;66872;63.142;14.482;2024-02-21T04:13:09;0.60;;;0.53;;
16531;SDS011;66872;63.142;14.482;2024-02-21T04:15:35;0.60;;;0.60;;
16531;SDS011;66872;63.142;14.482;2024-02-21T04:18:01;0.30;;;0.30;;
16531;SDS011;66872;63.142;14.482;2024-02-21T04:20:28;0.60;;;0.60;;
16531;SDS011;66872;63.142;14.482;2024-02-21T04:22:54;0.50;;;0.50;;
16531;SDS011;66872;63.142;14.482;2024-02-21T04:25:20;0.70;;;0.70;;
16531;SDS011;66872;63.142;14.482;2024-02-21T04:27:46;0.70;;;0.70;;
16531;SDS011;66872;63.142;14.482;2024-02-21T04:30:11;0.60;;;0.60;;
16531;SDS011;66872;63.142;14.482;2024-02-21T04:32:37;0.50;;;0.50;;
16531;SDS011;66872;63.142;14.482;2024-02-21T04:35:04;0.67;;;0.67;;
16531;SDS011;66872;63.142;14.482;2024-02-21T04:37:30;0.70;;;0.70;;
16531;SDS011;66872;63.142;14.482;2024-02-21T04:39:56;0.67;;;0.67;;
16531;SDS011;66872;63.142;14.482;2024-02-21T04:42:22;0.60;;;0.60;;
16531;SDS011;66872;63.142;14.482;2024-02-21T04:44:47;0.70;;;0.70;;
16531;SDS011;66872;63.142;14.482;2024-02-21T04:47:13;0.57;;;0.53;;
16531;SDS011;66872;63.142;14.482;2024-02-21T04:49:39;0.53;;;0.53;;
16531;SDS011;66872;63.142;14.482;2024-02-21T04:52:04;0.60;;;0.60;;
16531;SDS011;66872;63.142;14.482;2024-02-21T04:54:30;0.60;;;0.60;;
16531;SDS011;66872;63.142;14.482;2024-02-21T04:56:56;0.57;;;0.57;;
16531;SDS011;66872;63.142;14.482;2024-02-21T04:59:22;0.50;;;0.50;;
16531;SDS011;66872;63.142;14.482;2024-02-21T05:01:47;0.63;;;0.63;;
16531;SDS011;66872;63.142;14.482;2024-02-21T05:04:13;0.50;;;0.50;;
16531;SDS011;66872;63.142;14.482;2024-02-21T05:06:42;0.50;;;0.50;;
16531;SDS011;66872;63.142;14.482;2024-02-21T05:09:08;0.50;;;0.50;;
16531;SDS011;66872;63.142;14.482;2024-02-21T05:11:34;0.40;;;0.40;;
16531;SDS011;66872;63.142;14.482;2024-02-21T05:14:00;0.60;;;0.60;;
16531;SDS011;66872;63.142;14.482;2024-02-21T05:16:26;0.53;;;0.50;;
16531;SDS011;66872;63.142;14.482;2024-02-21T05:18:52;0.50;;;0.50;;
16531;SDS011;66872;63.142;14.482;2024-02-21T05:21:17;0.70;;;0.70;;
16531;SDS011;66872;63.142;14.482;2024-02-21T05:23:44;0.60;;;0.60;;
16531;SDS011;66872;63.142;14.482;2024-02-21T05:26:09;0.50;;;0.50;;
16531;SDS011;66872;63.142;14.482;2024-02-21T05:28:35;0.60;;;0.60;;
16531;SDS011;66872;63.142;14.482;2024-02-21T05:31:01;0.60;;;0.60;;
16531;SDS011;66872;63.142;14.482;2024-02-21T05:33:26;0.67;;;0.67;;
16531;SDS011;66872;63.142;14.482;2024-02-21T05:35:52;0.53;;;0.53;;
16531;SDS011;66872;63.142;14.482;2024-02-21T05:38:18;0.67;;;0.67;;
16531;SDS011;66872;63.142;14.482;2024-02-21T05:40:46;0.63;;;0.63;;
16531;SDS011;66872;63.142;14.482;2024-02-21T05:43:13;0.43;;;0.43;;
16531;SDS011;66872;63.142;14.482;2024-02-21T05:45:39;0.60;;;0.60;;
16531;SDS011;66872;63.142;14.482;2024-02-21T05:48:05;0.40;;;0.40;;
16531;SDS011;66872;63.142;14.482;2024-02-21T05:50:31;0.40;;;0.40;;
16531;SDS011;66872;63.142;14.482;2024-02-21T05:52:57;0.60;;;0.60;;
16531;SDS011;66872;63.142;14.482;2024-02-21T05:55:23;0.40;;;0.40;;
16531;SDS011;66872;63.142;14.482;2024-02-21T05:57:53;0.50;;;0.50;;
16531;SDS011;66872;63.142;14.482;2024-02-21T06:00:18;0.50;;;0.50;;
16531;SDS011;66872;63.142;14.482;2024-02-21T06:02:44;0.70;;;0.70;;
16531;SDS011;66872;63.142;14.482;2024-02-21T06:05:10;0.70;;;0.70;;
16531;SDS011;66872;63.142;14.482;2024-02-21T06:07:35;0.70;;;0.70;;
16531;SDS011;66872;63.142;14.482;2024-02-21T06:10:01;0.60;;;0.60;;
16531;SDS011;66872;63.142;14.482;2024-02-21T06:12:28;0.70;;;0.70;;
16531;SDS011;66872;63.142;14.482;2024-02-21T06:14:53;0.53;;;0.53;;
16531;SDS011;66872;63.142;14.482;2024-02-21T06:17:19;0.43;;;0.43;;
16531;SDS011;66872;63.142;14.482;2024-02-21T06:19:45;0.63;;;0.63;;
16531;SDS011;66872;63.142;14.482;2024-02-21T06:22:10;0.53;;;0.53;;
16531;SDS011;66872;63.142;14.482;2024-02-21T06:24:37;0.70;;;0.70;;
16531;SDS011;66872;63.142;14.482;2024-02-21T06:27:05;0.70;;;0.70;;
16531;SDS011;66872;63.142;14.482;2024-02-21T06:29:34;0.67;;;0.67;;
16531;SDS011;66872;63.142;14.482;2024-02-21T06:32:00;0.70;;;0.70;;
16531;SDS011;66872;63.142;14.482;2024-02-21T06:34:26;0.67;;;0.67;;
16531;SDS011;66872;63.142;14.482;2024-02-21T06:36:52;0.80;;;0.70;;
16531;SDS011;66872;63.142;14.482;2024-02-21T06:39:17;2.70;;;0.77;;
16531;SDS011;66872;63.142;14.482;2024-02-21T06:41:43;0.73;;;0.73;;
16531;SDS011;66872;63.142;14.482;2024-02-21T06:44:09;0.97;;;0.87;;
16531;SDS011;66872;63.142;14.482;2024-02-21T06:46:35;0.70;;;0.70;;
16531;SDS011;66872;63.142;14.482;2024-02-21T06:49:01;0.97;;;0.90;;
16531;SDS011;66872;63.142;14.482;2024-02-21T06:51:28;0.53;;;0.53;;
16531;SDS011;66872;63.142;14.482;2024-02-21T06:53:54;0.60;;;0.60;;
16531;SDS011;66872;63.142;14.482;2024-02-21T06:56:20;0.60;;;0.60;;
16531;SDS011;66872;63.142;14.482;2024-02-21T06:58:54;0.80;;;0.80;;
16531;SDS011;66872;63.142;14.482;2024-02-21T07:01:20;1.10;;;0.70;;
16531;SDS011;66872;63.142;14.482;2024-02-21T07:03:45;0.73;;;0.73;;
16531;SDS011;66872;63.142;14.482;2024-02-21T07:06:11;0.67;;;0.67;;
16531;SDS011;66872;63.142;14.482;2024-02-21T07:08:37;0.70;;;0.70;;
16531;SDS011;66872;63.142;14.482;2024-02-21T07:11:04;1.00;;;0.90;;
16531;SDS011;66872;63.142;14.482;2024-02-21T07:13:29;0.80;;;0.80;;
16531;SDS011;66872;63.142;14.482;2024-02-21T07:15:55;0.60;;;0.60;;
16531;SDS011;66872;63.142;14.482;2024-02-21T07:18:21;0.60;;;0.60;;
16531;SDS011;66872;63.142;14.482;2024-02-21T07:20:47;0.70;;;0.70;;
16531;SDS011;66872;63.142;14.482;2024-02-21T07:23:12;0.50;;;0.50;;
16531;SDS011;66872;63.142;14.482;2024-02-21T07:25:38;0.73;;;0.73;;
16531;SDS011;66872;63.142;14.482;2024-02-21T07:28:04;0.70;;;0.70;;
16531;SDS011;66872;63.142;14.482;2024-02-21T07:30:30;0.63;;;0.63;;
16531;SDS011;66872;63.142;14.482;2024-02-21T07:32:56;0.90;;;0.90;;
16531;SDS011;66872;63.142;14.482;2024-02-21T07:35:22;0.70;;;0.70;;
16531;SDS011;66872;63.142;14.482;2024-02-21T07:37:48;0.60;;;0.60;;
16531;SDS011;66872;63.142;14.482;2024-02-21T07:40:13;0.67;;;0.67;;
16531;SDS011;66872;63.142;14.482;2024-02-21T07:42:42;0.80;;;0.80;;
16531;SDS011;66872;63.142;14.482;2024-02-21T07:45:09;0.80;;;0.80;;
16531;SDS011;66872;63.142;14.482;2024-02-21T07:47:35;0.70;;;0.70;;
16531;SDS011;66872;63.142;14.482;2024-02-21T07:50:02;0.70;;;0.70;;
16531;SDS011;66872;63.142;14.482;2024-02-21T07:52:31;0.77;;;0.73;;
16531;SDS011;66872;63.142;14.482;2024-02-21T07:54:56;0.80;;;0.80;;
16531;SDS011;66872;63.142;14.482;2024-02-21T07:57:22;0.73;;;0.73;;
16531;SDS011;66872;63.142;14.482;2024-02-21T07:59:48;0.80;;;0.77;;
16531;SDS011;66872;63.142;14.482;2024-02-21T08:02:14;0.70;;;0.70;;
16531;SDS011;66872;63.142;14.482;2024-02-21T08:04:40;1.10;;;0.70;;
16531;SDS011;66872;63.142;14.482;2024-02-21T08:07:06;0.70;;;0.70;;
16531;SDS011;66872;63.142;14.482;2024-02-21T08:09:32;0.60;;;0.53;;
16531;SDS011;66872;63.142;14.482;2024-02-21T08:11:57;0.57;;;0.57;;
16531;SDS011;66872;63.142;14.482;2024-02-21T08:14:23;0.80;;;0.80;;
16531;SDS011;66872;63.142;14.482;2024-02-21T08:16:50;0.67;;;0.67;;
16531;SDS011;66872;63.142;14.482;2024-02-21T08:19:18;0.80;;;0.80;;
16531;SDS011;66872;63.142;14.482;2024-02-21T08:21:44;0.60;;;0.60;;
16531;SDS011;66872;63.142;14.482;2024-02-21T08:24:12;0.70;;;0.70;;
16531;SDS011;66872;63.142;14.482;2024-02-21T08:26:40;0.70;;;0.70;;
16531;SDS011;66872;63.142;14.482;2024-02-21T08:29:06;0.63;;;0.63;;
16531;SDS011;66872;63.142;14.482;2024-02-21T08:31:32;0.60;;;0.60;;
16531;SDS011;66872;63.142;14.482;2024-02-21T08:33:59;0.80;;;0.80;;
16531;SDS011;66872;63.142;14.482;2024-02-21T08:36:32;0.80;;;0.80;;
16531;SDS011;66872;63.142;14.482;2024-02-21T08:38:59;0.80;;;0.50;;
16531;SDS011;66872;63.142;14.482;2024-02-21T08:41:25;0.60;;;0.60;;
16531;SDS011;66872;63.142;14.482;2024-02-21T08:43:51;0.80;;;0.80;;
16531;SDS011;66872;63.142;14.482;2024-02-21T08:46:18;0.70;;;0.70;;
16531;SDS011;66872;63.142;14.482;2024-02-21T08:48:45;0.80;;;0.80;;
16531;SDS011;66872;63.142;14.482;2024-02-21T08:51:12;0.70;;;0.70;;
16531;SDS011;66872;63.142;14.482;2024-02-21T08:53:38;0.77;;;0.77;;
16531;SDS011;66872;63.142;14.482;2024-02-21T08:56:04;0.40;;;0.40;;
16531;SDS011;66872;63.142;14.482;2024-02-21T08:58:30;0.70;;;0.70;;
16531;SDS011;66872;63.142;14.482;2024-02-21T09:00:56;0.70;;;0.70;;
16531;SDS011;66872;63.142;14.482;2024-02-21T09:03:22;0.53;;;0.53;;
16531;SDS011;66872;63.142;14.482;2024-02-21T09:05:48;0.70;;;0.70;;
16531;SDS011;66872;63.142;14.482;2024-02-21T09:08:14;0.90;;;0.90;;
16531;SDS011;66872;63.142;14.482;2024-02-21T09:10:39;1.00;;;0.80;;
16531;SDS011;66872;63.142;14.482;2024-02-21T09:13:05;0.47;;;0.47;;
16531;SDS011;66872;63.142;14.482;2024-02-21T09:15:33;1.00;;;0.90;;
16531;SDS011;66872;63.142;14.482;2024-02-21T09:17:58;0.50;;;0.50;;
16531;SDS011;66872;63.142;14.482;2024-02-21T09:20:24;0.60;;;0.60;;
16531;SDS011;66872;63.142;14.482;2024-02-21T09:22:50;0.50;;;0.50;;
16531;SDS011;66872;63.142;14.482;2024-02-21T09:25:16;0.43;;;0.43;;
16531;SDS011;66872;63.142;14.482;2024-02-21T09:27:43;0.80;;;0.70;;
16531;SDS011;66872;63.142;14.482;2024-02-21T09:30:10;0.80;;;0.80;;
16531;SDS011;66872;63.142;14.482;2024-02-21T09:32:35;1.00;;;0.90;;
16531;SDS011;66872;63.142;14.482;2024-02-21T09:35:02;0.70;;;0.70;;
16531;SDS011;66872;63.142;14.482;2024-02-21T09:37:28;0.80;;;0.70;;
16531;SDS011;66872;63.142;14.482;2024-02-21T09:39:54;0.80;;;0.70;;
16531;SDS011;66872;63.142;14.482;2024-02-21T09:42:20;0.80;;;0.80;;
16531;SDS011;66872;63.142;14.482;2024-02-21T09:44:49;0.63;;;0.60;;
16531;SDS011;66872;63.142;14.482;2024-02-21T09:49:41;0.70;;;0.70;;
16531;SDS011;66872;63.142;14.482;2024-02-21T09:52:08;0.60;;;0.60;;
16531;SDS011;66872;63.142;14.482;2024-02-21T09:54:35;0.63;;;0.60;;
16531;SDS011;66872;63.142;14.482;2024-02-21T09:57:01;0.70;;;0.70;;
16531;SDS011;66872;63.142;14.482;2024-02-21T09:59:28;0.83;;;0.77;;
16531;SDS011;66872;63.142;14.482;2024-02-21T10:01:56;0.60;;;0.60;;
16531;SDS011;66872;63.142;14.482;2024-02-21T10:04:22;0.60;;;0.60;;
16531;SDS011;66872;63.142;14.482;2024-02-21T10:06:48;0.47;;;0.47;;
16531;SDS011;66872;63.142;14.482;2024-02-21T10:09:23;0.60;;;0.60;;
16531;SDS011;66872;63.142;14.482;2024-02-21T10:11:53;0.70;;;0.70;;
16531;SDS011;66872;63.142;14.482;2024-02-21T10:14:19;0.73;;;0.73;;
16531;SDS011;66872;63.142;14.482;2024-02-21T10:16:46;0.43;;;0.43;;
16531;SDS011;66872;63.142;14.482;2024-02-21T10:19:19;0.60;;;0.60;;
16531;SDS011;66872;63.142;14.482;2024-02-21T10:24:43;0.50;;;0.50;;
16531;SDS011;66872;63.142;14.482;2024-02-21T10:27:09;0.70;;;0.70;;
16531;SDS011;66872;63.142;14.482;2024-02-21T10:29:38;0.70;;;0.70;;
16531;SDS011;66872;63.142;14.482;2024-02-21T10:32:07;0.70;;;0.70;;
16531;SDS011;66872;63.142;14.482;2024-02-21T10:34:33;0.80;;;0.80;;
16531;SDS011;66872;63.142;14.482;2024-02-21T10:37:01;1.10;;;0.80;;
16531;SDS011;66872;63.142;14.482;2024-02-21T10:39:27;1.00;;;0.90;;
16531;SDS011;66872;63.142;14.482;2024-02-21T10:41:53;1.27;;;1.10;;
16531;SDS011;66872;63.142;14.482;2024-02-21T10:44:21;0.97;;;0.87;;
16531;SDS011;66872;63.142;14.482;2024-02-21T10:46:48;1.27;;;1.00;;
16531;SDS011;66872;63.142;14.482;2024-02-21T10:49:16;1.20;;;1.00;;
16531;SDS011;66872;63.142;14.482;2024-02-21T10:51:50;1.17;;;0.93;;
16531;SDS011;66872;63.142;14.482;2024-02-21T10:57:02;0.90;;;0.80;;
16531;SDS011;66872;63.142;14.482;2024-02-21T10:59:29;0.70;;;0.70;;
16531;SDS011;66872;63.142;14.482;2024-02-21T11:01:57;0.77;;;0.77;;
16531;SDS011;66872;63.142;14.482;2024-02-21T11:04:23;1.20;;;0.80;;
16531;SDS011;66872;63.142;14.482;2024-02-21T11:06:50;0.90;;;0.90;;
16531;SDS011;66872;63.142;14.482;2024-02-21T11:09:16;1.63;;;1.03;;
16531;SDS011;66872;63.142;14.482;2024-02-21T11:11:45;0.77;;;0.70;;
16531;SDS011;66872;63.142;14.482;2024-02-21T11:14:17;1.10;;;0.83;;
16531;SDS011;66872;63.142;14.482;2024-02-21T11:16:43;0.93;;;0.80;;
16531;SDS011;66872;63.142;14.482;2024-02-21T11:19:09;1.00;;;0.90;;
16531;SDS011;66872;63.142;14.482;2024-02-21T11:21:44;1.43;;;0.83;;
16531;SDS011;66872;63.142;14.482;2024-02-21T11:24:10;1.03;;;0.80;;
16531;SDS011;66872;63.142;14.482;2024-02-21T11:26:37;1.00;;;0.90;;
16531;SDS011;66872;63.142;14.482;2024-02-21T11:29:03;1.10;;;0.90;;
16531;SDS011;66872;63.142;14.482;2024-02-21T11:31:38;0.97;;;0.87;;
16531;SDS011;66872;63.142;14.482;2024-02-21T11:34:08;1.00;;;0.90;;
16531;SDS011;66872;63.142;14.482;2024-02-21T11:36:50;0.80;;;0.80;;
16531;SDS011;66872;63.142;14.482;2024-02-21T11:39:23;0.80;;;0.80;;
16531;SDS011;66872;63.142;14.482;2024-02-21T11:42:02;0.70;;;0.70;;
16531;SDS011;66872;63.142;14.482;2024-02-21T11:44:29;0.90;;;0.80;;
16531;SDS011;66872;63.142;14.482;2024-02-21T11:46:55;1.53;;;0.97;;
16531;SDS011;66872;63.142;14.482;2024-02-21T11:49:20;1.60;;;0.70;;
16531;SDS011;66872;63.142;14.482;2024-02-21T11:51:46;2.00;;;0.70;;
16531;SDS011;66872;63.142;14.482;2024-02-21T11:54:13;1.40;;;1.10;;
16531;SDS011;66872;63.142;14.482;2024-02-21T11:56:41;1.10;;;1.00;;
16531;SDS011;66872;63.142;14.482;2024-02-21T11:59:08;0.90;;;0.70;;
16531;SDS011;66872;63.142;14.482;2024-02-21T12:01:34;1.30;;;0.97;;
16531;SDS011;66872;63.142;14.482;2024-02-21T12:03:59;1.33;;;0.90;;
16531;SDS011;66872;63.142;14.482;2024-02-21T12:06:25;1.10;;;1.00;;
16531;SDS011;66872;63.142;14.482;2024-02-21T12:08:51;0.83;;;0.83;;
16531;SDS011;66872;63.142;14.482;2024-02-21T12:11:21;0.80;;;0.80;;
16531;SDS011;66872;63.142;14.482;2024-02-21T12:14:05;1.17;;;1.07;;
16531;SDS011;66872;63.142;14.482;2024-02-21T12:16:32;0.97;;;0.87;;
16531;SDS011;66872;63.142;14.482;2024-02-21T12:19:01;1.10;;;0.97;;
16531;SDS011;66872;63.142;14.482;2024-02-21T12:21:31;0.87;;;0.73;;
16531;SDS011;66872;63.142;14.482;2024-02-21T12:23:59;0.73;;;0.73;;
16531;SDS011;66872;63.142;14.482;2024-02-21T12:26:25;1.20;;;0.90;;
16531;SDS011;66872;63.142;14.482;2024-02-21T12:28:53;0.73;;;0.73;;
16531;SDS011;66872;63.142;14.482;2024-02-21T12:31:20;1.10;;;1.00;;
16531;SDS011;66872;63.142;14.482;2024-02-21T12:33:46;0.70;;;0.70;;
16531;SDS011;66872;63.142;14.482;2024-02-21T12:36:13;0.70;;;0.70;;
16531;SDS011;66872;63.142;14.482;2024-02-21T12:38:39;0.70;;;0.70;;
16531;SDS011;66872;63.142;14.482;2024-02-21T12:41:05;0.70;;;0.70;;
16531;SDS011;66872;63.142;14.482;2024-02-21T12:43:32;0.60;;;0.60;;
16531;SDS011;66872;63.142;14.482;2024-02-21T12:45:59;0.83;;;0.83;;
16531;SDS011;66872;63.142;14.482;2024-02-21T12:48:25;0.80;;;0.80;;
16531;SDS011;66872;63.142;14.482;2024-02-21T12:50:50;0.80;;;0.80;;
16531;SDS011;66872;63.142;14.482;2024-02-21T12:53:19;0.73;;;0.73;;
16531;SDS011;66872;63.142;14.482;2024-02-21T12:55:47;1.10;;;0.90;;
16531;SDS011;66872;63.142;14.482;2024-02-21T12:58:13;1.20;;;0.80;;
16531;SDS011;66872;63.142;14.482;2024-02-21T13:00:39;1.07;;;0.90;;
16531;SDS011;66872;63.142;14.482;2024-02-21T13:03:06;1.00;;;0.80;;
16531;SDS011;66872;63.142;14.482;2024-02-21T13:05:32;0.90;;;0.80;;
16531;SDS011;66872;63.142;14.482;2024-02-21T13:07:58;1.10;;;0.70;;
16531;SDS011;66872;63.142;14.482;2024-02-21T13:10:24;0.57;;;0.57;;
16531;SDS011;66872;63.142;14.482;2024-02-21T13:12:50;0.80;;;0.80;;
16531;SDS011;66872;63.142;14.482;2024-02-21T13:15:16;0.93;;;0.83;;
16531;SDS011;66872;63.142;14.482;2024-02-21T13:17:43;1.27;;;0.90;;
16531;SDS011;66872;63.142;14.482;2024-02-21T13:20:09;0.67;;;0.67;;
16531;SDS011;66872;63.142;14.482;2024-02-21T13:22:36;0.73;;;0.73;;
16531;SDS011;66872;63.142;14.482;2024-02-21T13:25:02;0.70;;;0.70;;
16531;SDS011;66872;63.142;14.482;2024-02-21T13:27:29;0.67;;;0.67;;
16531;SDS011;66872;63.142;14.482;2024-02-21T13:29:54;0.77;;;0.70;;
16531;SDS011;66872;63.142;14.482;2024-02-21T13:32:20;0.67;;;0.67;;
16531;SDS011;66872;63.142;14.482;2024-02-21T13:34:46;1.03;;;0.90;;
16531;SDS011;66872;63.142;14.482;2024-02-21T13:37:11;0.60;;;0.60;;
16531;SDS011;66872;63.142;14.482;2024-02-21T13:39:38;1.00;;;0.90;;
16531;SDS011;66872;63.142;14.482;2024-02-21T13:42:04;1.40;;;0.87;;
16531;SDS011;66872;63.142;14.482;2024-02-21T13:44:31;1.13;;;0.97;;
16531;SDS011;66872;63.142;14.482;2024-02-21T13:46:57;0.90;;;0.90;;
16531;SDS011;66872;63.142;14.482;2024-02-21T13:49:23;0.67;;;0.67;;
16531;SDS011;66872;63.142;14.482;2024-02-21T13:51:48;0.93;;;0.90;;
16531;SDS011;66872;63.142;14.482;2024-02-21T13:54:14;1.37;;;1.00;;
16531;SDS011;66872;63.142;14.482;2024-02-21T13:56:42;1.03;;;0.80;;
16531;SDS011;66872;63.142;14.482;2024-02-21T13:59:08;0.90;;;0.90;;
16531;SDS011;66872;63.142;14.482;2024-02-21T14:01:34;1.43;;;0.90;;
16531;SDS011;66872;63.142;14.482;2024-02-21T14:04:00;1.63;;;0.90;;
16531;SDS011;66872;63.142;14.482;2024-02-21T14:06:26;1.13;;;0.80;;
16531;SDS011;66872;63.142;14.482;2024-02-21T14:08:52;1.37;;;0.90;;
16531;SDS011;66872;63.142;14.482;2024-02-21T14:11:18;1.40;;;0.80;;
16531;SDS011;66872;63.142;14.482;2024-02-21T14:13:43;2.07;;;1.03;;
16531;SDS011;66872;63.142;14.482;2024-02-21T14:16:10;0.57;;;0.57;;
16531;SDS011;66872;63.142;14.482;2024-02-21T14:18:42;1.10;;;0.97;;
16531;SDS011;66872;63.142;14.482;2024-02-21T14:21:08;1.13;;;0.80;;
16531;SDS011;66872;63.142;14.482;2024-02-21T14:23:37;0.70;;;0.70;;
16531;SDS011;66872;63.142;14.482;2024-02-21T14:26:03;1.03;;;0.90;;
16531;SDS011;66872;63.142;14.482;2024-02-21T14:28:29;0.87;;;0.67;;
16531;SDS011;66872;63.142;14.482;2024-02-21T14:30:55;1.00;;;0.90;;
16531;SDS011;66872;63.142;14.482;2024-02-21T14:33:25;0.87;;;0.73;;
16531;SDS011;66872;63.142;14.482;2024-02-21T14:35:52;1.43;;;1.30;;
16531;SDS011;66872;63.142;14.482;2024-02-21T14:38:18;1.00;;;0.80;;
16531;SDS011;66872;63.142;14.482;2024-02-21T14:40:44;0.70;;;0.60;;